Weather History for Llano, TX

Change the Weather History Date:

Saturday, February 16, 2013

  Actual Average (KBMQ) Record (KBMQ)
Temperature  
Mean Temperature 45 °F -  
Max Temperature 64 °F 61 °F 81 °F (2006)
Min Temperature 26 °F 41 °F 19 °F (2007)
Degree Days  
Heating Degree Days 20    
Moisture  
Dew Point 27 °F    
Average Humidity 57    
Maximum Humidity 86    
Minimum Humidity 22    
Precipitation  
Precipitation 0.00 in - - ()
Sea Level Pressure  
Sea Level Pressure 30.35 in    
Wind  
Wind Speed 1 mph (WSW)    
Max Wind Speed 10 mph    
Max Gust Speed 16 mph    
Visibility 10 miles    
Events      
Averages and records for this station are not official NWS values.
T = Trace of Precipitation, MM = Missing Value Source: NWS Daily Summary

Daily Weather History Graph

Daily Weather History Graph

Search for Another Location

Airport:

Trip Planner

Search our weather history database for the weather conditions in past years. The results will help you decide how hot, cold, wet, or windy it might be!

Date:

Astronomy

Feb. 16, 2013 Rise Set
Actual Time 7:14 AM CST 6:23 PM CST
Civil Twilight 6:49 AM CST 6:48 PM CST
Nautical Twilight 6:21 AM CST 7:16 PM CST
Astronomical Twilight 5:53 AM CST 7:44 PM CST
Moon 10:57 AM CST (2/16) No Moon Set
Length of Visible Light 11h 58m
Length of Day
11h 09m
Waxing Crescent, 39% of the Moon is Illuminated
Feb 16
Waxing Crescent
Feb 17
First Quarter
Feb 25
Full
Mar 4
Last Quarter
Mar 11
New

Hourly Weather History & Observations

Time (CST) Temp. Windchill Dew Point Humidity Pressure Visibility Wind Dir Wind Speed Gust Speed Precip Events Conditions
12:15 AM 32.0 °F - 26.6 °F 80% 30.44 in 10.0 mi Calm Calm - N/A   Clear
12:35 AM 32.0 °F - 26.6 °F 80% 30.44 in 10.0 mi Calm Calm - N/A   Clear
12:55 AM 32.0 °F - 26.6 °F 80% 30.44 in 10.0 mi Calm Calm - N/A   Clear
1:15 AM 30.2 °F - 24.8 °F 80% 30.44 in 10.0 mi Calm Calm - N/A   Clear
1:35 AM 32.0 °F - 26.6 °F 80% 30.44 in 10.0 mi Calm Calm - N/A   Clear
1:55 AM 32.0 °F - 24.8 °F 75% 30.44 in 10.0 mi Calm Calm - N/A   Clear
2:15 AM 30.2 °F - 24.8 °F 80% 30.43 in 10.0 mi Calm Calm - N/A   Clear
2:55 AM 30.2 °F - 23.0 °F 75% 30.44 in 10.0 mi Calm Calm - N/A   Clear
3:15 AM 28.4 °F - 23.0 °F 80% 30.44 in 10.0 mi Calm Calm - N/A   Clear
3:35 AM 32.0 °F - 23.0 °F 69% 30.45 in 10.0 mi Calm Calm - N/A   Clear
3:55 AM 30.2 °F - 24.8 °F 80% 30.45 in 10.0 mi Calm Calm - N/A   Clear
4:15 AM 30.2 °F - 24.8 °F 80% 30.45 in 10.0 mi Calm Calm - N/A   Clear
4:35 AM 30.2 °F - 24.8 °F 80% 30.45 in 10.0 mi Calm Calm - N/A   Clear
4:55 AM 28.4 °F - 23.0 °F 80% 30.45 in 10.0 mi Calm Calm - N/A   Clear
5:15 AM 28.4 °F - 23.0 °F 80% 30.45 in 10.0 mi Calm Calm - N/A   Clear
5:35 AM 30.2 °F - 24.8 °F 80% 30.45 in 10.0 mi Calm Calm - N/A   Clear
5:55 AM 26.6 °F - 23.0 °F 86% 30.46 in 10.0 mi Calm Calm - N/A   Clear
6:15 AM 28.4 °F - 23.0 °F 80% 30.46 in 10.0 mi Calm Calm - N/A   Clear
6:55 AM 28.4 °F - 24.8 °F 86% 30.46 in 10.0 mi Calm Calm - N/A   Clear
7:15 AM 28.4 °F - 24.8 °F 86% 30.47 in 10.0 mi Calm Calm - N/A   Clear
7:35 AM 30.2 °F - 26.6 °F 86% 30.48 in 10.0 mi Calm Calm - N/A   Clear
7:55 AM 32.0 °F - 26.6 °F 80% 30.48 in 10.0 mi Calm Calm - N/A   Clear
8:15 AM 32.0 °F 28.7 °F 26.6 °F 80% 30.49 in 10.0 mi West 3.5 mph - N/A   Clear
8:55 AM 35.6 °F - 28.4 °F 75% 30.48 in 10.0 mi Calm Calm - N/A   Clear
9:15 AM 39.2 °F 34.2 °F 28.4 °F 65% 30.48 in 10.0 mi WSW 6.9 mph - N/A   Clear
11:35 AM 55.4 °F - 24.8 °F 31% 30.45 in 10.0 mi WNW 8.1 mph - N/A   Clear
12:15 PM 57.2 °F - 26.6 °F 31% 30.42 in 10.0 mi Calm Calm - N/A   Clear
12:35 PM 57.2 °F - 24.8 °F 29% 30.40 in 10.0 mi WNW 6.9 mph - N/A   Clear
12:55 PM 60.8 °F - 24.8 °F 25% 30.39 in 10.0 mi NW 8.1 mph - N/A   Clear
1:15 PM 60.8 °F - 24.8 °F 25% 30.37 in 10.0 mi Calm Calm - N/A   Clear
1:35 PM 60.8 °F - 26.6 °F 27% 30.35 in 10.0 mi SW 3.5 mph 16.1 mph N/A   Clear
1:55 PM 60.8 °F - 26.6 °F 27% 30.33 in 10.0 mi WSW 4.6 mph - N/A   Clear
2:15 PM 62.6 °F - 26.6 °F 26% 30.32 in 10.0 mi WNW 6.9 mph - N/A   Clear
2:35 PM 62.6 °F - 26.6 °F 26% 30.31 in 10.0 mi WNW 6.9 mph - N/A   Clear
2:55 PM 62.6 °F - 26.6 °F 26% 30.30 in 10.0 mi SSW 9.2 mph - N/A   Clear
3:15 PM 64.4 °F - 24.8 °F 22% 30.29 in 10.0 mi SW 5.8 mph - N/A   Clear
3:35 PM 64.4 °F - 24.8 °F 22% 30.28 in 10.0 mi WSW 9.2 mph - N/A   Clear
3:55 PM 64.4 °F - 24.8 °F 22% 30.27 in 10.0 mi SW 10.4 mph - N/A   Clear
4:15 PM 64.4 °F - 24.8 °F 22% 30.27 in 10.0 mi WSW 8.1 mph - N/A   Clear
4:35 PM 64.4 °F - 24.8 °F 22% 30.26 in 10.0 mi Calm Calm - N/A   Clear
4:55 PM 64.4 °F - 24.8 °F 22% 30.25 in 10.0 mi West 9.2 mph - N/A   Clear
5:15 PM 64.4 °F - 24.8 °F 22% 30.24 in 10.0 mi SW 6.9 mph - N/A   Clear
5:35 PM 64.4 °F - 24.8 °F 22% 30.24 in 10.0 mi Calm Calm - N/A   Clear
5:55 PM 62.6 °F - 26.6 °F 26% 30.24 in 10.0 mi Calm Calm - N/A   Clear
6:15 PM 62.6 °F - 26.6 °F 26% 30.23 in 10.0 mi Calm Calm - N/A   Clear
6:35 PM 57.2 °F - 28.4 °F 33% 30.23 in 10.0 mi Calm Calm - N/A   Clear
6:55 PM 53.6 °F - 30.2 °F 41% 30.23 in 10.0 mi Calm Calm - N/A   Clear
7:15 PM 51.8 °F - 28.4 °F 41% 30.24 in 10.0 mi Calm Calm - N/A   Clear
7:55 PM 46.4 °F - 30.2 °F 53% 30.23 in 10.0 mi Calm Calm - N/A   Clear
8:15 PM 46.4 °F - 30.2 °F 53% 30.23 in 10.0 mi Calm Calm - N/A   Clear
8:35 PM 44.6 °F - 32.0 °F 61% 30.23 in 10.0 mi Calm Calm - N/A   Clear
8:55 PM 44.6 °F - 28.4 °F 53% 30.23 in 10.0 mi Calm Calm - N/A   Clear
9:15 PM 41.0 °F - 32.0 °F 70% 30.23 in 10.0 mi Calm Calm - N/A   Clear
9:35 PM 39.2 °F - 30.2 °F 70% 30.24 in 10.0 mi Calm Calm - N/A   Clear
9:55 PM 39.2 °F - 30.2 °F 70% 30.24 in 10.0 mi Calm Calm - N/A   Clear
10:15 PM 39.2 °F - 30.2 °F 70% 30.24 in 10.0 mi Calm Calm - N/A   Clear
10:35 PM 37.4 °F - 30.2 °F 75% 30.24 in 10.0 mi Calm Calm - N/A   Clear
10:55 PM 37.4 °F - 30.2 °F 75% 30.24 in 10.0 mi Calm Calm - N/A   Clear
11:15 PM 41.0 °F - 28.4 °F 61% 30.24 in 10.0 mi Calm Calm - N/A   Clear
11:35 PM 39.2 °F - 30.2 °F 70% 30.23 in 10.0 mi Calm Calm - N/A   Clear
11:55 PM 37.4 °F - 30.2 °F 75% 30.23 in 10.0 mi Calm Calm - N/A   Clear